Time;durP1;ratioP1;P1;durP2;ratioP2;P2;SDS_P1;SDS_P2;PMS_P1;PMS_P2;Temp;Humidity;BMP_temperature;BMP_pressure;BME280_temperature;BME280_humidity;BME280_pressure;Samples;Min_cycle;Max_cycle;Signal;HPM_P1;HPM_P2
2023/11/06 00:02:13;;;;;;;8.90;1.80;;;11.70;99.90;;;;;;7283624;19;20187;-87
2023/11/06 00:04:39;;;;;;;8.03;1.57;;;11.60;99.90;;;;;;7282589;19;20191;-87
2023/11/06 00:07:05;;;;;;;8.87;1.30;;;11.60;99.90;;;;;;7284659;19;20191;-87
2023/11/06 00:09:31;;;;;;;7.37;1.40;;;11.60;99.90;;;;;;7284208;19;20244;-87
2023/11/06 00:11:56;;;;;;;12.27;1.70;;;11.60;99.90;;;;;;7283898;19;20177;-87
2023/11/06 00:14:22;;;;;;;8.47;1.13;;;11.50;99.90;;;;;;7284374;19;20204;-88
2023/11/06 00:16:51;;;;;;;9.07;1.60;;;11.40;99.90;;;;;;7306046;19;20180;-87
2023/11/06 00:19:17;;;;;;;9.70;1.30;;;11.40;99.90;;;;;;7285166;19;20192;-87
2023/11/06 00:21:43;;;;;;;10.13;1.60;;;11.40;99.90;;;;;;7284044;19;20192;-87
2023/11/06 00:24:09;;;;;;;8.30;1.30;;;11.30;99.90;;;;;;7285083;19;20248;-87
2023/11/06 00:26:35;;;;;;;9.27;1.20;;;11.40;99.90;;;;;;7285067;19;20202;-87
2023/11/06 00:29:01;;;;;;;9.47;1.30;;;11.30;99.90;;;;;;7283709;19;20254;-86
2023/11/06 00:31:27;;;;;;;7.50;1.30;;;11.20;99.90;;;;;;7282704;19;20191;-87
2023/11/06 00:33:53;;;;;;;8.53;1.50;;;11.20;99.90;;;;;;7285233;19;20266;-87
2023/11/06 00:36:22;;;;;;;8.13;1.20;;;11.20;99.90;;;;;;7306767;19;20187;-87
2023/11/06 00:38:48;;;;;;;10.33;1.47;;;11.30;99.90;;;;;;7284479;19;20587;-87
2023/11/06 00:41:16;;;;;;;10.77;1.67;;;11.30;99.90;;;;;;7282227;19;20207;-86
2023/11/06 00:43:42;;;;;;;11.00;1.37;;;11.30;99.90;;;;;;7283569;19;20208;-87
2023/11/06 00:46:08;;;;;;;11.40;1.60;;;11.30;99.90;;;;;;7290475;19;20200;-87
2023/11/06 00:48:34;;;;;;;11.03;1.80;;;11.30;99.90;;;;;;7288922;19;20192;-88
2023/11/06 00:51:00;;;;;;;12.77;1.57;;;11.20;99.90;;;;;;7287589;19;20251;-87
2023/11/06 00:53:26;;;;;;;8.40;1.40;;;11.30;99.90;;;;;;7290790;19;20193;-87
2023/11/06 00:55:53;;;;;;;13.57;1.73;;;11.30;99.90;;;;;;7300124;19;20192;-88
2023/11/06 00:58:19;;;;;;;9.93;1.90;;;11.30;99.90;;;;;;7311707;19;20197;-87
2023/11/06 01:00:45;;;;;;;9.63;1.30;;;11.30;99.90;;;;;;7290298;19;20184;-87
2023/11/06 01:03:11;;;;;;;10.90;2.10;;;11.20;99.90;;;;;;7288394;19;20198;-87
2023/11/06 01:05:37;;;;;;;14.20;1.50;;;11.20;99.90;;;;;;7288533;19;20716;-87
2023/11/06 01:08:04;;;;;;;11.03;1.60;;;11.10;99.90;;;;;;7286787;19;20203;-86
2023/11/06 01:10:34;;;;;;;14.70;1.87;;;11.00;99.90;;;;;;7285287;19;20195;-87
2023/11/06 01:13:01;;;;;;;8.97;1.67;;;11.00;99.90;;;;;;7285815;19;20188;-87
2023/11/06 01:15:31;;;;;;;11.53;1.73;;;11.10;99.90;;;;;;7291135;19;20191;-87
2023/11/06 01:17:58;;;;;;;16.50;2.00;;;11.00;99.90;;;;;;7294638;19;20189;-87
2023/11/06 01:20:24;;;;;;;12.73;1.73;;;10.90;99.90;;;;;;7292023;19;21090;-87
2023/11/06 01:22:50;;;;;;;12.80;1.80;;;11.00;99.90;;;;;;7313542;19;20192;-87
2023/11/06 01:25:16;;;;;;;14.87;1.53;;;10.90;99.90;;;;;;7290920;19;20203;-87
2023/11/06 01:27:42;;;;;;;11.80;1.50;;;10.90;99.90;;;;;;7290606;19;20730;-87
2023/11/06 01:30:09;;;;;;;13.10;1.70;;;10.90;99.90;;;;;;7288233;19;20196;-87
2023/11/06 01:32:36;;;;;;;14.00;1.60;;;10.80;99.90;;;;;;7290516;19;20195;-87
2023/11/06 01:35:02;;;;;;;8.87;1.57;;;10.90;99.90;;;;;;7288407;19;20196;-87
2023/11/06 01:37:28;;;;;;;13.33;1.40;;;11.00;99.90;;;;;;7289196;19;20187;-87
2023/11/06 01:39:54;;;;;;;7.53;1.40;;;11.10;99.90;;;;;;7289896;19;20191;-87
2023/11/06 01:42:19;;;;;;;7.07;1.43;;;11.00;99.90;;;;;;7309590;19;20185;-87
2023/11/06 01:44:45;;;;;;;10.27;1.47;;;11.00;99.90;;;;;;7289094;19;20192;-87
2023/11/06 01:47:11;;;;;;;10.00;1.73;;;11.10;99.90;;;;;;7288892;19;20209;-87
2023/11/06 01:49:38;;;;;;;11.33;2.03;;;11.10;99.90;;;;;;7287086;19;20529;-87
2023/11/06 01:52:10;;;;;;;11.77;2.03;;;11.10;99.90;;;;;;7287324;19;20228;-87
2023/11/06 01:54:37;;;;;;;16.37;2.20;;;11.10;99.90;;;;;;7287074;19;20719;-88
2023/11/06 01:57:03;;;;;;;20.03;2.20;;;11.10;99.90;;;;;;7288048;19;20183;-87
2023/11/06 01:59:29;;;;;;;17.10;2.43;;;11.00;99.90;;;;;;7287937;19;20647;-90
2023/11/06 02:02:00;;;;;;;16.50;2.13;;;11.00;99.90;;;;;;7288481;19;20206;-89
2023/11/06 02:04:29;;;;;;;16.40;2.00;;;11.00;99.90;;;;;;7286225;19;20191;-87
2023/11/06 02:06:55;;;;;;;15.90;2.33;;;11.00;99.90;;;;;;7285907;19;20311;-87
2023/11/06 02:09:21;;;;;;;18.40;2.00;;;11.00;99.90;;;;;;7304799;19;20187;-87
2023/11/06 02:11:47;;;;;;;14.30;1.70;;;11.00;99.90;;;;;;7299550;19;20187;-87
2023/11/06 02:14:13;;;;;;;13.43;1.93;;;11.00;99.90;;;;;;7287453;19;20191;-87
2023/11/06 02:16:39;;;;;;;16.00;2.10;;;11.00;99.90;;;;;;7284829;19;20192;-87
2023/11/06 02:19:07;;;;;;;17.27;2.03;;;11.10;99.90;;;;;;7287178;19;20199;-87
2023/11/06 02:21:34;;;;;;;11.73;2.27;;;11.10;99.90;;;;;;7286106;19;20587;-87
2023/11/06 02:24:00;;;;;;;12.00;2.20;;;11.10;99.90;;;;;;7286380;19;20210;-86
2023/11/06 02:26:26;;;;;;;18.53;2.30;;;11.10;99.90;;;;;;7286857;19;20202;-87
2023/11/06 02:28:53;;;;;;;16.00;2.37;;;11.10;99.90;;;;;;7296808;19;20194;-87
2023/11/06 02:31:19;;;;;;;17.20;2.43;;;11.10;99.90;;;;;;7308456;19;20187;-87
2023/11/06 02:33:45;;;;;;;12.87;2.13;;;11.10;99.90;;;;;;7286555;19;20248;-87
2023/11/06 02:36:11;;;;;;;13.87;2.13;;;11.20;99.90;;;;;;7287780;19;20196;-87
2023/11/06 02:38:37;;;;;;;10.00;1.90;;;11.20;99.90;;;;;;7287318;19;20188;-87
2023/11/06 02:41:03;;;;;;;15.30;2.23;;;11.10;99.90;;;;;;7286995;19;20664;-86
2023/11/06 02:43:29;;;;;;;12.80;1.73;;;11.10;99.90;;;;;;7284775;19;20195;-87
2023/11/06 02:45:55;;;;;;;14.13;2.30;;;11.10;99.90;;;;;;7286737;19;20189;-87
2023/11/06 02:48:22;;;;;;;13.53;2.30;;;11.10;99.90;;;;;;7303307;19;20201;-88
2023/11/06 02:50:49;;;;;;;18.07;2.33;;;11.20;99.90;;;;;;7304511;19;20251;-87
2023/11/06 02:53:15;;;;;;;13.43;2.00;;;11.10;99.90;;;;;;7285519;19;20203;-87
2023/11/06 02:55:41;;;;;;;12.60;2.27;;;11.00;99.90;;;;;;7284992;19;20191;-87
2023/11/06 02:58:07;;;;;;;15.17;2.50;;;10.90;99.90;;;;;;7287606;19;20203;-86
2023/11/06 03:00:32;;;;;;;14.53;2.10;;;10.90;99.90;;;;;;7284994;19;20199;-87
2023/11/06 03:02:59;;;;;;;16.67;2.03;;;10.80;99.90;;;;;;7284821;19;20207;-86
2023/11/06 03:05:25;;;;;;;17.00;2.27;;;10.80;99.90;;;;;;7286844;19;20255;-87
2023/11/06 03:07:51;;;;;;;21.93;2.40;;;10.80;99.90;;;;;;7304829;19;20650;-87
2023/11/06 03:10:17;;;;;;;18.97;2.77;;;10.90;99.90;;;;;;7284734;19;20196;-86
2023/11/06 03:12:43;;;;;;;15.80;2.37;;;10.90;99.90;;;;;;7286235;19;20196;-87
2023/11/06 03:15:10;;;;;;;16.10;2.60;;;11.00;99.90;;;;;;7284195;19;20199;-87
2023/11/06 03:17:36;;;;;;;13.10;1.97;;;11.00;99.90;;;;;;7283437;19;20290;-88
2023/11/06 03:20:07;;;;;;;19.80;2.40;;;11.00;99.90;;;;;;7284640;19;20185;-86
2023/11/06 03:22:33;;;;;;;16.73;2.20;;;10.90;99.90;;;;;;7283699;19;20851;-87
2023/11/06 03:24:58;;;;;;;16.70;2.63;;;10.90;99.90;;;;;;7285093;19;20199;-86
2023/11/06 03:27:24;;;;;;;26.83;2.53;;;11.10;99.90;;;;;;7285411;19;20180;-87
2023/11/06 03:29:50;;;;;;;23.13;3.03;;;11.10;99.90;;;;;;7306093;19;20191;-87
2023/11/06 03:32:16;;;;;;;17.73;2.53;;;11.10;99.90;;;;;;7283422;19;20291;-87
2023/11/06 03:34:44;;;;;;;14.87;2.30;;;11.10;99.90;;;;;;7284730;19;20191;-87
2023/11/06 03:37:10;;;;;;;18.87;2.40;;;11.10;99.90;;;;;;7284330;19;20211;-87
2023/11/06 03:39:36;;;;;;;20.17;2.90;;;11.10;99.90;;;;;;7283717;19;20191;-87
2023/11/06 03:42:02;;;;;;;22.27;2.40;;;11.20;99.90;;;;;;7284116;19;20190;-87
2023/11/06 03:44:28;;;;;;;21.37;2.50;;;11.10;99.90;;;;;;7283446;19;20234;-87
2023/11/06 03:46:53;;;;;;;23.43;2.50;;;11.10;99.90;;;;;;7282551;19;20197;-89
2023/11/06 03:49:21;;;;;;;22.90;2.40;;;11.00;99.90;;;;;;7305528;19;20202;-87
2023/11/06 03:51:47;;;;;;;18.97;2.23;;;10.90;99.90;;;;;;7285778;19;20181;-87
2023/11/06 03:54:12;;;;;;;17.67;2.17;;;10.90;99.90;;;;;;7285348;19;20185;-87
2023/11/06 03:56:38;;;;;;;20.90;2.80;;;10.90;99.90;;;;;;7282314;19;20199;-87
2023/11/06 03:59:04;;;;;;;21.17;2.87;;;10.90;99.90;;;;;;7283727;19;20194;-87
2023/11/06 04:01:36;;;;;;;20.57;2.57;;;10.80;99.90;;;;;;7284603;19;20545;-87
2023/11/06 04:04:02;;;;;;;16.90;1.70;;;10.80;99.90;;;;;;7283281;19;20291;-86
2023/11/06 04:06:29;;;;;;;18.93;2.13;;;10.70;99.90;;;;;;7283702;19;20228;-87
2023/11/06 04:08:56;;;;;;;21.20;2.20;;;10.60;99.90;;;;;;7282948;19;20246;-87
2023/11/06 04:11:22;;;;;;;19.00;2.63;;;10.60;99.90;;;;;;7305925;19;20188;-87
2023/11/06 04:13:48;;;;;;;18.63;2.53;;;10.60;99.90;;;;;;7284330;19;20586;-87
2023/11/06 04:16:14;;;;;;;16.03;2.27;;;10.50;99.90;;;;;;7283564;19;20972;-87
2023/11/06 04:18:40;;;;;;;16.93;2.00;;;10.50;99.90;;;;;;7284025;19;20219;-87
2023/11/06 04:21:09;;;;;;;17.27;2.13;;;10.50;99.90;;;;;;7290772;19;20272;-87
2023/11/06 04:23:34;;;;;;;17.17;2.03;;;10.50;99.90;;;;;;7288168;19;20214;-87
2023/11/06 04:26:00;;;;;;;18.27;2.23;;;10.60;99.90;;;;;;7288920;19;20190;-87
2023/11/06 04:28:27;;;;;;;20.57;2.23;;;10.50;99.90;;;;;;7289461;19;20191;-87
2023/11/06 04:30:53;;;;;;;15.47;2.40;;;10.50;99.90;;;;;;7298950;19;20181;-87
2023/11/06 04:33:18;;;;;;;16.47;1.87;;;10.40;99.90;;;;;;7309147;19;20707;-87
2023/11/06 04:35:44;;;;;;;18.03;2.43;;;10.40;99.90;;;;;;7287453;19;20190;-87
2023/11/06 04:38:11;;;;;;;16.57;2.30;;;10.30;99.90;;;;;;7289479;19;20194;-87
2023/11/06 04:40:36;;;;;;;19.50;2.13;;;10.40;99.90;;;;;;7288320;19;20750;-87
2023/11/06 04:43:02;;;;;;;18.07;2.27;;;10.30;99.90;;;;;;7288970;19;20198;-87
2023/11/06 04:45:28;;;;;;;21.97;2.70;;;10.40;99.90;;;;;;7288524;19;20186;-87
2023/11/06 04:47:54;;;;;;;16.83;2.23;;;10.30;99.90;;;;;;7289353;19;20204;-87
2023/11/06 04:50:19;;;;;;;22.53;2.50;;;10.20;99.90;;;;;;7311177;19;20202;-87
2023/11/06 04:52:45;;;;;;;17.57;2.20;;;10.10;99.90;;;;;;7288515;19;20181;-87
2023/11/06 04:55:11;;;;;;;22.57;2.20;;;10.10;99.90;;;;;;7288794;19;20201;-87
2023/11/06 04:57:37;;;;;;;21.33;2.10;;;10.20;99.90;;;;;;7289227;19;20183;-86
2023/11/06 05:00:05;;;;;;;19.27;2.63;;;10.20;99.90;;;;;;7290836;19;20208;-86
2023/11/06 05:02:31;;;;;;;18.20;2.57;;;10.30;99.90;;;;;;7289402;19;20649;-87
2023/11/06 05:04:57;;;;;;;24.80;2.53;;;10.20;99.90;;;;;;7287986;19;20182;-87
2023/11/06 05:07:23;;;;;;;21.00;2.40;;;10.30;99.90;;;;;;7294967;19;20186;-87
2023/11/06 05:09:49;;;;;;;16.10;3.40;;;10.30;99.90;;;;;;7310608;19;20196;-86
2023/11/06 05:12:15;;;;;;;21.80;2.27;;;10.40;99.90;;;;;;7288558;19;20193;-88
2023/11/06 05:14:41;;;;;;;17.33;2.47;;;10.30;99.90;;;;;;7288397;19;20203;-88
2023/11/06 05:17:06;;;;;;;23.33;2.30;;;10.30;99.90;;;;;;7288332;19;20186;-88
2023/11/06 05:19:37;;;;;;;17.23;2.30;;;10.30;99.90;;;;;;7289415;19;20294;-88
2023/11/06 05:22:03;;;;;;;21.03;2.43;;;10.30;99.90;;;;;;7287003;19;20201;-88
2023/11/06 05:24:29;;;;;;;20.10;3.03;;;10.20;99.90;;;;;;7286268;19;20177;-88
2023/11/06 05:26:55;;;;;;;17.07;2.50;;;10.20;99.90;;;;;;7288920;19;20190;-87
2023/11/06 05:29:21;;;;;;;19.90;2.20;;;10.30;99.90;;;;;;7309169;19;20548;-89
2023/11/06 05:31:47;;;;;;;16.50;1.90;;;10.30;99.90;;;;;;7287769;19;20678;-88
2023/11/06 05:34:12;;;;;;;14.97;2.40;;;10.30;99.90;;;;;;7287540;19;20187;-88
2023/11/06 05:36:40;;;;;;;15.97;2.23;;;10.40;99.90;;;;;;7283820;19;20532;-88
2023/11/06 05:39:06;;;;;;;22.00;2.60;;;10.30;99.90;;;;;;7286097;19;20212;-88
2023/11/06 05:41:31;;;;;;;23.27;2.30;;;10.30;99.90;;;;;;7285349;19;20194;-88
2023/11/06 05:43:57;;;;;;;14.97;2.30;;;10.20;99.90;;;;;;7283346;19;20322;-89
2023/11/06 05:46:24;;;;;;;13.77;2.73;;;10.20;99.90;;;;;;7294111;19;20207;-89
2023/11/06 05:48:50;;;;;;;18.13;2.60;;;10.20;99.90;;;;;;7308731;19;20201;-88
2023/11/06 05:51:15;;;;;;;19.47;2.90;;;10.20;99.90;;;;;;7283469;19;20194;-89
2023/11/06 05:53:41;;;;;;;20.53;3.40;;;10.00;99.90;;;;;;7285922;19;20195;-88
2023/11/06 05:56:07;;;;;;;21.93;3.30;;;10.00;99.90;;;;;;7284368;19;20194;-88
2023/11/06 05:58:33;;;;;;;15.87;2.50;;;10.00;99.90;;;;;;7284133;19;20183;-87
2023/11/06 06:01:00;;;;;;;20.10;3.33;;;10.20;99.90;;;;;;7281621;19;20725;-87
2023/11/06 06:03:26;;;;;;;19.80;3.03;;;10.20;99.90;;;;;;7283982;19;20195;-89
2023/11/06 06:05:52;;;;;;;18.70;2.90;;;10.20;99.90;;;;;;7305789;19;20194;-88
2023/11/06 06:08:19;;;;;;;19.17;2.93;;;10.20;99.90;;;;;;7286339;19;20192;-88
2023/11/06 06:10:45;;;;;;;19.10;3.37;;;10.20;99.90;;;;;;7284535;19;20194;-88
2023/11/06 06:13:11;;;;;;;19.93;2.60;;;10.30;99.90;;;;;;7286846;19;20211;-88
2023/11/06 06:15:37;;;;;;;24.43;3.30;;;10.40;99.90;;;;;;7284000;19;20522;-88
2023/11/06 06:18:03;;;;;;;15.80;2.97;;;10.50;99.90;;;;;;7284777;19;20206;-88
2023/11/06 06:20:28;;;;;;;17.37;2.87;;;10.50;99.90;;;;;;7284281;19;20182;-88
2023/11/06 06:22:54;;;;;;;23.47;3.40;;;10.40;99.90;;;;;;7284267;19;20191;-88
2023/11/06 06:25:20;;;;;;;27.40;3.60;;;10.30;99.90;;;;;;7306021;19;20182;-88
2023/11/06 06:27:46;;;;;;;23.53;3.43;;;10.20;99.90;;;;;;7283152;19;20202;-88
2023/11/06 06:30:14;;;;;;;19.50;3.53;;;10.10;99.90;;;;;;7283876;19;20332;-87
2023/11/06 06:32:41;;;;;;;24.17;4.00;;;10.00;99.90;;;;;;7283109;19;20198;-87
2023/11/06 06:35:08;;;;;;;20.97;3.53;;;10.00;99.90;;;;;;7282448;19;20189;-88
2023/11/06 06:37:33;;;;;;;24.20;3.40;;;10.10;99.90;;;;;;7283618;19;20191;-88
2023/11/06 06:39:59;;;;;;;14.47;2.83;;;10.10;99.90;;;;;;7284248;19;20374;-88
2023/11/06 06:42:25;;;;;;;20.00;3.50;;;10.10;99.90;;;;;;7280095;19;20202;-89
2023/11/06 06:44:50;;;;;;;17.17;3.00;;;10.20;99.90;;;;;;7305819;19;20195;-87
2023/11/06 06:47:16;;;;;;;23.73;3.50;;;10.20;99.90;;;;;;7284405;19;20188;-88
2023/11/06 06:49:42;;;;;;;18.53;3.33;;;10.20;99.90;;;;;;7285664;19;20335;-89
2023/11/06 06:52:08;;;;;;;23.30;3.67;;;10.20;99.90;;;;;;7282787;19;20195;-89
2023/11/06 06:54:35;;;;;;;18.77;2.90;;;10.10;99.90;;;;;;7282472;19;20615;-88
2023/11/06 06:57:02;;;;;;;18.00;3.17;;;10.00;99.90;;;;;;7283525;19;20534;-89
2023/11/06 06:59:28;;;;;;;20.63;3.70;;;10.00;99.90;;;;;;7282197;19;20190;-89
2023/11/06 07:01:54;;;;;;;19.40;3.20;;;10.00;99.90;;;;;;7287299;19;20197;-89
2023/11/06 07:04:19;;;;;;;22.13;3.63;;;10.00;99.90;;;;;;7305014;19;20199;-89
2023/11/06 07:06:47;;;;;;;23.43;4.37;;;10.00;99.90;;;;;;7282973;19;20286;-89
2023/11/06 07:09:12;;;;;;;16.27;3.00;;;9.90;99.90;;;;;;7283075;19;20196;-88
2023/11/06 07:11:38;;;;;;;15.07;3.30;;;9.90;99.90;;;;;;7283240;19;20197;-89
2023/11/06 07:14:04;;;;;;;25.03;3.70;;;9.80;99.90;;;;;;7283303;19;20205;-89
2023/11/06 07:16:30;;;;;;;19.13;3.17;;;9.90;99.90;;;;;;7282534;19;20194;-89
2023/11/06 07:18:55;;;;;;;16.67;3.07;;;9.90;99.90;;;;;;7282616;19;20187;-89
2023/11/06 07:21:21;;;;;;;21.70;3.50;;;10.00;99.90;;;;;;7304151;19;20194;-89
2023/11/06 07:23:49;;;;;;;25.70;3.53;;;10.10;99.90;;;;;;7283088;19;20273;-89
2023/11/06 07:26:15;;;;;;;22.27;4.27;;;10.10;99.90;;;;;;7281412;19;20193;-88
2023/11/06 07:28:41;;;;;;;21.03;3.70;;;10.10;99.90;;;;;;7281457;19;20201;-89
2023/11/06 07:31:08;;;;;;;19.00;3.80;;;10.10;99.90;;;;;;7279110;19;20187;-89
2023/11/06 07:33:34;;;;;;;17.87;3.60;;;10.10;99.90;;;;;;7280494;19;20199;-89
2023/11/06 07:35:59;;;;;;;23.20;3.77;;;10.10;99.90;;;;;;7283006;19;20181;-88
2023/11/06 07:38:25;;;;;;;21.07;3.67;;;10.10;99.90;;;;;;7279785;19;20199;-88
2023/11/06 07:40:51;;;;;;;22.10;3.90;;;10.10;99.90;;;;;;7303470;19;20261;-87
2023/11/06 07:43:17;;;;;;;20.20;3.60;;;10.10;99.90;;;;;;7280662;19;20210;-88
2023/11/06 07:45:42;;;;;;;22.50;4.10;;;10.20;99.90;;;;;;7280996;19;20216;-89
2023/11/06 07:48:08;;;;;;;25.93;4.50;;;10.20;99.90;;;;;;7282908;19;21169;-88
2023/11/06 07:50:34;;;;;;;23.33;3.93;;;10.30;99.90;;;;;;7282346;19;20190;-88
2023/11/06 07:53:01;;;;;;;18.97;3.63;;;10.30;99.90;;;;;;7279889;19;20257;-89
2023/11/06 07:55:27;;;;;;;20.37;3.77;;;10.40;99.90;;;;;;7281087;19;20209;-88
2023/11/06 07:57:53;;;;;;;20.83;3.60;;;10.40;99.90;;;;;;7302756;19;20223;-88
2023/11/06 08:00:19;;;;;;;18.33;3.13;;;10.40;99.90;;;;;;7281164;19;20265;-89
2023/11/06 08:02:45;;;;;;;18.13;2.80;;;10.40;99.90;;;;;;7281909;19;20493;-88
2023/11/06 08:05:11;;;;;;;19.80;3.37;;;10.50;99.90;;;;;;7282424;19;20194;-88
2023/11/06 08:07:38;;;;;;;21.10;3.27;;;10.50;99.90;;;;;;7279357;19;20204;-89
2023/11/06 08:10:09;;;;;;;16.70;3.17;;;10.50;99.90;;;;;;7282330;19;20182;-89
2023/11/06 08:12:35;;;;;;;21.97;3.93;;;10.60;99.90;;;;;;7281783;19;20222;-89
2023/11/06 08:15:00;;;;;;;25.43;3.67;;;10.70;99.90;;;;;;7281163;19;20190;-89
2023/11/06 08:17:26;;;;;;;24.80;4.43;;;10.80;99.90;;;;;;7283569;19;20308;-89
2023/11/06 08:19:52;;;;;;;14.37;2.90;;;10.90;99.90;;;;;;7304262;19;20191;-89
2023/11/06 08:22:20;;;;;;;23.57;4.03;;;11.10;99.90;;;;;;7281511;19;20185;-89
2023/11/06 08:24:46;;;;;;;26.10;3.60;;;11.10;99.90;;;;;;7282353;19;21166;-89
2023/11/06 08:27:12;;;;;;;16.67;3.13;;;10.90;99.90;;;;;;7281162;19;20186;-89
2023/11/06 08:29:44;;;;;;;16.87;3.20;;;10.90;99.90;;;;;;7279253;19;20207;-88
2023/11/06 08:32:12;;;;;;;17.87;3.23;;;10.90;99.90;;;;;;7283958;19;20203;-88
2023/11/06 08:34:42;;;;;;;17.60;2.70;;;11.00;99.90;;;;;;7280396;19;20203;-87
2023/11/06 08:37:10;;;;;;;18.37;2.90;;;10.90;99.90;;;;;;7280508;19;20188;-87
2023/11/06 08:39:45;;;;;;;18.73;3.13;;;11.10;99.90;;;;;;7279669;19;20199;-87
2023/11/06 08:42:14;;;;;;;20.37;3.17;;;11.10;99.90;;;;;;7279219;19;20535;-86
2023/11/06 08:44:42;;;;;;;16.67;2.90;;;11.00;99.90;;;;;;7276875;19;20194;-86
2023/11/06 08:47:11;;;;;;;18.23;2.70;;;11.10;99.90;;;;;;7279384;19;20184;-87
2023/11/06 08:49:37;;;;;;;19.57;3.20;;;11.10;99.90;;;;;;7280047;19;20199;-85
2023/11/06 08:52:06;;;;;;;22.20;3.10;;;11.00;99.90;;;;;;7278624;19;20218;-87
2023/11/06 08:54:33;;;;;;;19.90;3.93;;;11.20;99.90;;;;;;7279032;19;20199;-87
2023/11/06 08:56:59;;;;;;;14.83;3.00;;;11.30;99.90;;;;;;7280239;19;20669;-89
2023/11/06 08:59:25;;;;;;;18.70;3.67;;;11.40;99.90;;;;;;7283582;19;20195;-89
2023/11/06 09:01:54;;;;;;;21.27;3.63;;;11.50;99.90;;;;;;7300918;19;20250;-89
2023/11/06 09:04:19;;;;;;;23.33;4.47;;;11.50;99.90;;;;;;7280588;19;20198;-89
2023/11/06 09:06:46;;;;;;;20.17;4.40;;;11.50;99.90;;;;;;7286684;19;20847;-89
2023/11/06 09:09:12;;;;;;;16.80;3.73;;;11.60;99.90;;;;;;7285130;19;20194;-88
2023/11/06 09:11:40;;;;;;;20.77;3.63;;;11.60;99.90;;;;;;7287539;19;20208;-88
2023/11/06 09:14:08;;;;;;;29.27;16.47;;;11.80;99.90;;;;;;7285943;19;20195;-89
2023/11/06 09:16:37;;;;;;;18.60;4.30;;;11.90;99.90;;;;;;7285265;19;20196;-88
2023/11/06 09:19:07;;;;;;;18.07;4.80;;;12.00;99.90;;;;;;7288143;19;20188;-88
2023/11/06 09:21:34;;;;;;;21.30;4.20;;;12.10;99.90;;;;;;7285070;19;20189;-89
2023/11/06 09:24:00;;;;;;;15.27;3.33;;;12.20;99.90;;;;;;7285801;19;20192;-89
2023/11/06 09:26:26;;;;;;;21.00;3.73;;;12.20;99.90;;;;;;7284548;19;20188;-89
2023/11/06 09:28:53;;;;;;;15.03;3.43;;;12.20;99.90;;;;;;7307551;19;20173;-89
2023/11/06 09:31:23;;;;;;;15.50;3.30;;;12.30;99.90;;;;;;7285661;19;20195;-89
2023/11/06 09:33:50;;;;;;;16.67;3.87;;;12.50;99.90;;;;;;7284725;19;20184;-89
2023/11/06 09:36:16;;;;;;;18.97;3.77;;;12.70;99.90;;;;;;7283331;19;20185;-89
2023/11/06 09:38:42;;;;;;;18.87;3.93;;;12.70;99.90;;;;;;7285675;19;20216;-89
2023/11/06 09:41:09;;;;;;;15.93;3.77;;;12.90;99.90;;;;;;7285262;19;20184;-88
2023/11/06 09:43:35;;;;;;;18.93;3.67;;;12.90;99.90;;;;;;7283587;19;20189;-89
2023/11/06 09:46:04;;;;;;;16.90;3.43;;;12.80;99.90;;;;;;7285186;19;20289;-89
2023/11/06 09:48:31;;;;;;;16.77;2.93;;;12.90;99.90;;;;;;7284551;19;20185;-88
2023/11/06 09:50:57;;;;;;;11.90;2.87;;;13.10;99.90;;;;;;7285629;19;20197;-89
2023/11/06 09:53:24;;;;;;;20.13;3.67;;;13.30;99.90;;;;;;7306443;19;20201;-89
2023/11/06 09:55:52;;;;;;;15.27;3.43;;;13.40;99.90;;;;;;7285078;19;20205;-89
2023/11/06 09:58:18;;;;;;;10.67;2.70;;;13.60;99.90;;;;;;7285877;19;20265;-89
2023/11/06 10:00:46;;;;;;;10.43;2.83;;;14.80;99.90;;;;;;7286009;19;20204;-89
2023/11/06 10:03:14;;;;;;;9.57;2.00;;;14.80;99.90;;;;;;7281426;19;20200;-89
2023/11/06 10:05:40;;;;;;;11.00;2.20;;;14.60;99.90;;;;;;7283743;19;20187;-89
2023/11/06 10:08:06;;;;;;;12.90;2.20;;;15.20;99.90;;;;;;7285012;19;20187;-86
2023/11/06 10:10:34;;;;;;;12.23;2.43;;;16.10;99.90;;;;;;7283146;19;20318;-87
2023/11/06 10:13:13;;;;;;;11.47;2.60;;;16.00;99.90;;;;;;7284603;19;20733;-87
2023/11/06 10:15:39;;;;;;;11.73;2.43;;;16.30;99.90;;;;;;7281993;19;20196;-87
2023/11/06 10:18:15;;;;;;;13.20;2.27;;;16.20;99.90;;;;;;7285041;19;20191;-87
2023/11/06 10:20:52;;;;;;;11.53;2.33;;;16.50;99.90;;;;;;7284568;19;20274;-87
2023/11/06 10:23:34;;;;;;;11.30;1.80;;;16.90;99.90;;;;;;7283249;19;20599;-87
2023/11/06 10:26:15;;;;;;;11.60;1.87;;;16.70;99.90;;;;;;7183785;19;2004565;-86
2023/11/06 10:28:41;;;;;;;11.43;1.70;;;16.40;99.90;;;;;;7283955;19;20200;-87
2023/11/06 10:31:07;;;;;;;9.70;1.80;;;16.00;99.90;;;;;;7283819;19;20522;-87
2023/11/06 10:33:33;;;;;;;10.90;1.73;;;16.20;99.90;;;;;;7285469;19;20670;-86
2023/11/06 10:35:59;;;;;;;8.80;1.63;;;17.10;99.90;;;;;;7283180;19;20719;-87
2023/11/06 10:38:29;;;;;;;10.50;2.00;;;17.50;99.90;;;;;;7285050;19;20192;-87
2023/11/06 10:40:59;;;;;;;12.23;2.00;;;18.40;99.90;;;;;;7294324;19;20209;-87
2023/11/06 10:43:25;;;;;;;11.80;1.80;;;18.70;99.90;;;;;;7291487;19;20214;-87
2023/11/06 10:45:52;;;;;;;13.07;1.80;;;18.70;99.90;;;;;;7305094;19;20817;-87
2023/11/06 10:48:44;;;;;;;6.60;1.50;;;18.80;99.90;;;;;;7283781;19;20204;-87
2023/11/06 10:51:13;;;;;;;13.70;2.00;;;19.20;99.90;;;;;;7180339;19;2006036;-86
2023/11/06 10:53:40;;;;;;;11.37;1.83;;;18.40;99.90;;;;;;7284579;19;20189;-87
2023/11/06 10:56:08;;;;;;;12.40;1.80;;;18.40;99.90;;;;;;7281617;19;20694;-87
2023/11/06 10:58:36;;;;;;;7.50;1.80;;;19.10;99.90;;;;;;7283898;19;20188;-87
2023/11/06 11:01:07;;;;;;;11.20;1.80;;;19.90;99.90;;;;;;7282250;19;20306;-87
2023/11/06 11:03:34;;;;;;;11.13;1.63;;;20.00;99.90;;;;;;7283263;19;20188;-87
2023/11/06 11:06:00;;;;;;;12.27;1.67;;;19.40;99.90;;;;;;7285120;19;20291;-86
2023/11/06 11:08:26;;;;;;;9.57;1.70;;;18.80;99.90;;;;;;7281764;19;20179;-87
2023/11/06 11:10:56;;;;;;;9.03;1.40;;;19.00;99.90;;;;;;7304705;19;20199;-88
2023/11/06 11:13:22;;;;;;;8.93;1.70;;;18.40;99.90;;;;;;7284299;19;20191;-87
2023/11/06 11:15:48;;;;;;;7.97;1.60;;;17.50;99.90;;;;;;7282246;19;20185;-87
2023/11/06 11:18:17;;;;;;;12.30;2.00;;;17.40;99.90;;;;;;7285328;19;20244;-87
2023/11/06 11:20:56;;;;;;;12.53;1.57;;;17.40;99.90;;;;;;7283037;19;20192;-87
2023/11/06 11:23:38;;;;;;;12.53;2.00;;;17.40;99.90;;;;;;7279054;19;20270;-87
2023/11/06 11:26:05;;;;;;;9.53;1.40;;;16.80;99.90;;;;;;7181197;19;2004380;-88
2023/11/06 11:29:09;;;;;;;8.27;1.60;;;16.50;99.90;;;;;;7280817;19;20187;-88
2023/11/06 11:31:43;;;;;;;14.77;1.87;;;16.00;99.90;;;;;;7180887;19;2006070;-87
2023/11/06 11:34:30;;;;;;;12.53;1.77;;;15.70;99.90;;;;;;7283604;19;20189;-88
2023/11/06 11:36:57;;;;;;;8.57;1.80;;;15.60;99.90;;;;;;7263786;19;20192;-88
2023/11/06 11:39:23;;;;;;;12.03;1.50;;;15.50;99.90;;;;;;7306126;19;20235;-87
2023/11/06 11:42:09;;;;;;;15.10;1.93;;;15.50;99.90;;;;;;7283948;19;20189;-87
2023/11/06 11:44:36;;;;;;;11.77;1.60;;;15.50;99.90;;;;;;7178799;19;2004578;-87
2023/11/06 11:47:03;;;;;;;9.37;2.33;;;15.40;99.90;;;;;;7281730;19;20188;-87
2023/11/06 11:49:43;;;;;;;11.03;1.60;;;15.20;99.90;;;;;;7282712;19;20222;-87
2023/11/06 11:52:10;;;;;;;11.87;1.57;;;15.30;99.90;;;;;;7283237;19;20193;-87
2023/11/06 11:54:37;;;;;;;9.53;1.50;;;15.20;99.90;;;;;;7282570;19;20251;-87
2023/11/06 11:57:10;;;;;;;10.93;1.33;;;15.10;99.90;;;;;;7282117;19;20187;-87
2023/11/06 11:59:42;;;;;;;11.07;1.47;;;15.00;99.90;;;;;;7284014;19;20751;-87
2023/11/06 12:02:28;;;;;;;8.03;1.40;;;15.00;99.90;;;;;;7281242;19;20195;-87
2023/11/06 12:04:56;;;;;;;11.43;1.50;;;14.90;99.90;;;;;;7283383;19;20233;-87
2023/11/06 12:07:22;;;;;;;10.10;1.53;;;14.70;99.90;;;;;;7283301;19;20187;-87
2023/11/06 12:09:53;;;;;;;10.43;1.67;;;14.70;99.90;;;;;;7280783;19;20195;-87
2023/11/06 12:12:21;;;;;;;10.93;1.73;;;14.60;99.90;;;;;;7282394;19;20186;-88
2023/11/06 12:14:47;;;;;;;15.70;1.93;;;14.80;99.90;;;;;;7281609;19;20698;-87
2023/11/06 12:17:23;;;;;;;11.93;1.40;;;14.90;99.90;;;;;;7281970;19;20257;-87
2023/11/06 12:19:49;;;;;;;9.17;1.37;;;14.80;99.90;;;;;;7280942;19;20193;-87
2023/11/06 12:22:16;;;;;;;10.33;1.60;;;14.80;99.90;;;;;;7279869;19;20196;-87
2023/11/06 12:24:51;;;;;;;12.30;1.70;;;14.70;99.90;;;;;;7281422;19;20692;-87
2023/11/06 12:27:18;;;;;;;12.13;1.60;;;14.60;99.90;;;;;;7281794;19;20248;-87
2023/11/06 12:29:44;;;;;;;9.17;1.13;;;14.60;99.90;;;;;;7280705;19;20193;-88
2023/11/06 12:32:23;;;;;;;9.00;1.73;;;14.40;99.90;;;;;;7282499;19;20530;-87
2023/11/06 12:35:05;;;;;;;8.17;1.40;;;14.60;99.90;;;;;;7279179;19;20227;-87
2023/11/06 12:37:45;;;;;;;11.93;1.70;;;14.60;99.90;;;;;;7176871;19;2004446;-87
2023/11/06 12:40:17;;;;;;;10.67;1.70;;;14.70;99.90;;;;;;7281427;19;20209;-87